createdAt,value
2019-02-27T00:02:29.415Z,77.97
2019-02-27T00:04:58.499Z,78.06
2019-02-27T00:07:27.547Z,78.13
2019-02-27T00:09:56.808Z,78.11
2019-02-27T00:12:25.909Z,78.09
2019-02-27T00:14:54.987Z,77.82
2019-02-27T00:17:23.997Z,78.00
2019-02-27T00:19:53.042Z,78.20
2019-02-27T00:22:22.109Z,78.34
2019-02-27T00:24:51.200Z,77.94
2019-02-27T00:27:21.145Z,78.46
2019-02-27T00:29:50.143Z,78.06
2019-02-27T00:32:19.229Z,78.21
2019-02-27T00:34:48.540Z,78.12
2019-02-27T00:37:19.068Z,78.50
2019-02-27T00:39:48.367Z,78.67
2019-02-27T00:42:20.654Z,78.70
2019-02-27T00:44:48.509Z,78.78
2019-02-27T00:47:20.178Z,78.80
2019-02-27T00:49:48.611Z,78.71
2019-02-27T00:52:18.341Z,78.66
2019-02-27T00:54:47.833Z,78.46
2019-02-27T00:57:20.450Z,78.85
2019-02-27T00:59:47.598Z,79.05
2019-02-27T01:02:19.937Z,79.60
2019-02-27T01:04:47.396Z,79.71
2019-02-27T01:07:20.207Z,79.74
2019-02-27T01:09:48.138Z,79.85
2019-02-27T01:12:17.753Z,80.02
2019-02-27T01:14:47.409Z,79.78
2019-02-27T01:17:16.419Z,80.27
2019-02-27T01:19:45.486Z,80.57
2019-02-27T01:22:14.760Z,80.79
2019-02-27T01:24:43.787Z,81.01
2019-02-27T01:27:12.821Z,80.98
2019-02-27T01:29:41.882Z,80.92
2019-02-27T01:32:11.254Z,81.65
2019-02-27T01:34:44.171Z,81.59
2019-02-27T01:37:11.383Z,82.04
2019-02-27T01:39:41.838Z,82.48
2019-02-27T01:42:11.856Z,82.31
2019-02-27T01:45:01.887Z,82.39
2019-02-27T01:47:30.951Z,81.71
2019-02-27T01:50:00.334Z,81.59
2019-02-27T01:52:33.957Z,81.60
2019-02-27T01:55:00.629Z,81.31
2019-02-27T01:57:29.678Z,81.40
2019-02-27T01:59:59.081Z,81.16
2019-02-27T02:02:28.158Z,81.31
2019-02-27T02:04:57.473Z,81.54
2019-02-27T02:07:26.477Z,81.89
2019-02-27T02:09:55.879Z,81.96
2019-02-27T02:12:28.231Z,81.96
2019-02-27T02:15:34.921Z,81.84
2019-02-27T02:18:48.831Z,81.74
2019-02-27T02:21:51.823Z,81.48
2019-02-27T02:25:08.363Z,81.51
2019-02-27T02:28:14.767Z,81.17
2019-02-27T02:31:16.253Z,81.70
2019-02-27T02:34:21.937Z,82.03
2019-02-27T02:37:07.296Z,82.31
2019-02-27T02:40:05.679Z,82.36
2019-02-27T02:43:04.840Z,82.52
2019-02-27T02:45:46.083Z,82.55
2019-02-27T02:48:42.728Z,82.33
2019-02-27T02:51:56.149Z,83.14
2019-02-27T02:55:11.872Z,82.89
2019-02-27T02:57:54.466Z,83.11
2019-02-27T03:00:56.637Z,83.11
2019-02-27T03:03:45.971Z,83.17
2019-02-27T03:06:34.736Z,82.79
2019-02-27T03:09:30.039Z,83.25
2019-02-27T03:12:40.925Z,83.53
2019-02-27T03:15:34.082Z,83.94
2019-02-27T03:18:38.283Z,84.40
2019-02-27T03:21:33.528Z,84.29
2019-02-27T03:24:28.297Z,84.18
2019-02-27T03:27:30.552Z,83.60
2019-02-27T03:30:40.775Z,83.73
2019-02-27T03:33:48.078Z,83.85
2019-02-27T03:37:14.312Z,83.62
2019-02-27T03:40:33.463Z,83.54
2019-02-27T03:43:26.418Z,83.58
2019-02-27T03:46:33.213Z,83.88
2019-02-27T03:49:43.259Z,83.73
2019-02-27T03:52:52.435Z,84.04
2019-02-27T03:56:10.686Z,84.17
2019-02-27T03:59:42.452Z,84.74
2019-02-27T04:02:53.998Z,85.33
2019-02-27T04:06:21.361Z,85.13
2019-02-27T04:08:58.015Z,85.55
2019-02-27T04:11:27.574Z,85.83
2019-02-27T04:14:03.235Z,85.77
2019-02-27T04:16:32.635Z,86.30
2019-02-27T04:19:04.598Z,86.91
2019-02-27T04:21:33.041Z,86.69
2019-02-27T04:24:02.102Z,86.47
2019-02-27T04:26:31.132Z,85.97
2019-02-27T04:29:03.984Z,86.09
2019-02-27T04:31:31.529Z,84.64
2019-02-27T04:34:01.259Z,84.18
2019-02-27T04:36:30.532Z,83.03
2019-02-27T04:39:02.419Z,81.76
2019-02-27T04:41:31.551Z,81.67
2019-02-27T04:44:05.289Z,81.57
2019-02-27T04:46:31.777Z,81.74
2019-02-27T04:49:03.999Z,81.18
2019-02-27T04:51:31.858Z,81.62
2019-02-27T04:54:01.291Z,81.92
2019-02-27T04:56:30.293Z,81.96
2019-02-27T04:58:59.318Z,82.01
2019-02-27T05:01:28.418Z,82.17
2019-02-27T05:04:01.089Z,82.27
2019-02-27T05:06:28.595Z,82.08
2019-02-27T05:08:59.699Z,81.98
2019-02-27T05:11:28.469Z,82.38
2019-02-27T05:13:57.512Z,82.59
2019-02-27T05:16:26.540Z,83.15
2019-02-27T05:18:55.942Z,82.35
2019-02-27T05:21:25.353Z,83.00
2019-02-27T05:23:54.602Z,83.27
2019-02-27T05:26:27.065Z,83.39
2019-02-27T05:28:55.030Z,83.25
2019-02-27T05:31:24.124Z,83.42
2019-02-27T05:33:53.217Z,83.26
2019-02-27T05:36:22.244Z,83.73
2019-02-27T05:38:51.938Z,83.54
2019-02-27T05:41:21.005Z,83.52
2019-02-27T05:43:50.028Z,83.52
2019-02-27T05:46:19.540Z,83.81
2019-02-27T05:48:50.960Z,83.75
2019-02-27T05:51:19.486Z,83.90
2019-02-27T05:53:48.539Z,84.13
2019-02-27T05:56:17.573Z,83.96
2019-02-27T05:58:47.098Z,84.43
2019-02-27T06:01:16.100Z,84.71
2019-02-27T06:03:45.162Z,84.92
2019-02-27T06:06:14.414Z,85.23
2019-02-27T06:08:43.825Z,85.32
2019-02-27T06:11:12.866Z,84.96
2019-02-27T06:13:41.874Z,84.85
2019-02-27T06:16:11.040Z,85.09
2019-02-27T06:18:40.802Z,84.91
2019-02-27T06:21:09.972Z,84.54
2019-02-27T06:23:39.177Z,85.18
2019-02-27T06:26:08.191Z,85.05
2019-02-27T06:28:37.694Z,85.05
2019-02-27T06:31:06.701Z,85.15
2019-02-27T06:33:35.724Z,84.89
2019-02-27T06:36:05.307Z,85.38
2019-02-27T06:38:35.548Z,85.57
2019-02-27T06:41:04.594Z,85.04
2019-02-27T06:43:33.620Z,85.35
2019-02-27T06:46:02.677Z,85.02
2019-02-27T06:48:32.381Z,85.19
2019-02-27T06:51:01.650Z,84.89
2019-02-27T06:53:30.710Z,85.12
2019-02-27T06:56:02.759Z,85.34
2019-02-27T06:58:30.522Z,85.06
2019-02-27T07:00:59.553Z,84.91
2019-02-27T07:03:29.527Z,84.96
2019-02-27T07:05:59.356Z,84.58
2019-02-27T07:08:28.746Z,83.70
2019-02-27T07:11:09.915Z,83.23
2019-02-27T07:13:29.912Z,83.08
2019-02-27T07:15:59.083Z,83.12
2019-02-27T07:18:28.186Z,82.41
2019-02-27T07:20:58.478Z,82.61
2019-02-27T07:23:28.580Z,81.46
2019-02-27T07:25:57.656Z,81.52
2019-02-27T07:28:26.693Z,80.25
2019-02-27T07:30:56.196Z,78.65
2019-02-27T07:33:25.254Z,77.82
2019-02-27T07:35:54.602Z,78.04
2019-02-27T07:38:25.515Z,77.87
2019-02-27T07:40:54.814Z,77.47
2019-02-27T07:43:23.854Z,77.17
2019-02-27T07:45:54.373Z,77.39
2019-02-27T07:48:23.577Z,77.19
2019-02-27T07:50:52.982Z,77.32
2019-02-27T07:53:22.198Z,76.70
2019-02-27T07:55:51.216Z,76.13
2019-02-27T07:58:20.225Z,75.55
2019-02-27T08:00:49.950Z,75.15
2019-02-27T08:03:19.578Z,75.11
2019-02-27T08:05:48.988Z,75.01
2019-02-27T08:08:18.036Z,74.92
2019-02-27T08:10:47.170Z,75.28
2019-02-27T08:13:16.558Z,75.37
2019-02-27T08:15:45.580Z,75.95
2019-02-27T08:18:14.689Z,75.68
2019-02-27T08:20:44.412Z,76.90
2019-02-27T08:23:15.510Z,75.16
2019-02-27T08:25:45.127Z,74.21
2019-02-27T08:28:14.592Z,75.89
2019-02-27T08:30:43.666Z,74.81
2019-02-27T08:33:15.208Z,74.83
2019-02-27T08:35:44.157Z,75.89
2019-02-27T08:38:13.588Z,75.38
2019-02-27T08:40:42.631Z,74.45
2019-02-27T08:43:12.227Z,75.09
2019-02-27T08:45:41.717Z,75.75
2019-02-27T08:48:11.180Z,76.40
2019-02-27T08:50:40.586Z,76.46
2019-02-27T08:53:09.716Z,74.97
2019-02-27T08:55:39.826Z,69.83
2019-02-27T08:58:09.088Z,65.45
2019-02-27T09:00:39.452Z,59.27
2019-02-27T09:03:08.486Z,54.51
2019-02-27T09:05:38.080Z,51.96
2019-02-27T09:08:09.877Z,49.20
2019-02-27T09:10:38.094Z,45.12
2019-02-27T09:13:07.792Z,44.11
2019-02-27T09:15:36.841Z,45.63
2019-02-27T09:18:05.877Z,45.85
2019-02-27T09:20:39.950Z,45.94
2019-02-27T09:23:09.336Z,44.08
2019-02-27T09:25:38.358Z,42.84
2019-02-27T09:28:09.419Z,43.25
2019-02-27T09:30:38.536Z,44.00
2019-02-27T09:33:07.570Z,44.52
2019-02-27T09:35:38.766Z,43.23
2019-02-27T09:38:08.697Z,45.59
2019-02-27T09:40:40.311Z,43.97
2019-02-27T09:43:09.444Z,44.04
2019-02-27T09:45:38.764Z,38.50
2019-02-27T09:48:08.716Z,36.34
2019-02-27T09:50:47.728Z,36.85
2019-02-27T09:53:13.568Z,35.89
2019-02-27T09:55:43.156Z,36.89
2019-02-27T09:58:12.576Z,38.57
2019-02-27T10:00:45.542Z,36.91
2019-02-27T10:03:19.762Z,38.10
2019-02-27T10:05:45.900Z,39.09
2019-02-27T10:08:15.002Z,41.42
2019-02-27T10:10:45.810Z,39.79
2019-02-27T10:13:15.098Z,39.62
2019-02-27T10:15:44.126Z,36.28
2019-02-27T10:18:13.182Z,36.45
2019-02-27T10:20:42.198Z,35.10
2019-02-27T10:23:11.242Z,33.07
2019-02-27T10:25:43.194Z,33.92
2019-02-27T10:28:11.114Z,33.75
2019-02-27T10:30:40.123Z,36.60
2019-02-27T10:33:11.142Z,34.02
2019-02-27T10:35:39.937Z,34.26
2019-02-27T10:38:08.970Z,32.45
2019-02-27T10:40:37.991Z,34.07
2019-02-27T10:43:07.022Z,33.90
2019-02-27T10:45:36.314Z,33.33
2019-02-27T10:48:05.608Z,33.04
2019-02-27T10:50:36.096Z,35.14
2019-02-27T10:53:05.513Z,35.98
2019-02-27T10:55:35.155Z,35.04
2019-02-27T10:58:04.191Z,34.77
2019-02-27T11:00:33.517Z,35.42
2019-02-27T11:03:02.841Z,34.81
2019-02-27T11:05:32.747Z,34.68
2019-02-27T11:08:01.339Z,33.75
2019-02-27T11:10:30.629Z,33.42
2019-02-27T11:12:59.709Z,35.18
2019-02-27T11:15:28.763Z,32.12
2019-02-27T11:17:57.775Z,31.33
2019-02-27T11:20:27.049Z,32.57
2019-02-27T11:22:56.415Z,32.72
2019-02-27T11:25:26.405Z,33.35
2019-02-27T11:27:56.738Z,35.57
2019-02-27T11:30:35.931Z,37.53
2019-02-27T11:33:02.362Z,39.43
2019-02-27T11:35:31.365Z,39.52
2019-02-27T11:38:00.406Z,37.96
2019-02-27T11:40:29.717Z,36.81
2019-02-27T11:43:00.953Z,38.47
2019-02-27T11:45:29.864Z,37.19
2019-02-27T11:47:59.011Z,37.63
2019-02-27T11:50:28.108Z,36.14
2019-02-27T11:53:01.888Z,33.16
2019-02-27T11:55:28.849Z,36.15
2019-02-27T11:57:58.467Z,34.91
2019-02-27T12:00:29.266Z,32.61
2019-02-27T12:02:58.669Z,32.79
2019-02-27T12:05:32.568Z,32.34
2019-02-27T12:07:58.556Z,33.28
2019-02-27T12:10:28.285Z,32.31
2019-02-27T12:13:00.799Z,31.21
2019-02-27T12:15:29.037Z,31.02
2019-02-27T12:18:00.488Z,30.79
2019-02-27T12:20:29.173Z,29.26
2019-02-27T12:22:58.346Z,31.68
2019-02-27T12:25:29.972Z,30.01
2019-02-27T12:27:58.629Z,30.31
2019-02-27T12:30:27.901Z,30.46
2019-02-27T12:32:57.327Z,29.58
2019-02-27T12:35:28.004Z,30.73
2019-02-27T12:37:57.351Z,32.01
2019-02-27T12:40:26.500Z,31.64
2019-02-27T12:42:55.514Z,32.69
2019-02-27T12:45:26.646Z,31.15
2019-02-27T12:47:55.857Z,31.45
2019-02-27T12:50:26.894Z,34.04
2019-02-27T12:52:56.107Z,33.99
2019-02-27T12:55:25.307Z,31.98
2019-02-27T12:57:54.346Z,32.58
2019-02-27T13:00:25.967Z,32.42
2019-02-27T13:02:56.277Z,32.43
2019-02-27T13:05:27.347Z,32.22
2019-02-27T13:07:56.458Z,31.62
2019-02-27T13:10:25.774Z,30.09
2019-02-27T13:12:55.136Z,30.69
2019-02-27T13:15:24.382Z,30.58
2019-02-27T13:17:57.671Z,32.43
2019-02-27T13:20:25.764Z,32.66
2019-02-27T13:22:54.823Z,31.48
2019-02-27T13:25:24.879Z,32.77
2019-02-27T13:27:54.337Z,32.59
2019-02-27T13:30:23.362Z,30.43
2019-02-27T13:32:52.406Z,31.77
2019-02-27T13:35:22.953Z,31.22
2019-02-27T13:37:52.740Z,32.09
2019-02-27T13:40:21.926Z,32.16
2019-02-27T13:42:53.500Z,31.66
2019-02-27T13:45:23.291Z,32.58
2019-02-27T13:47:52.368Z,33.37
2019-02-27T13:50:23.444Z,33.76
2019-02-27T13:52:52.791Z,33.15
2019-02-27T13:55:22.002Z,32.82
2019-02-27T13:57:51.385Z,34.05
2019-02-27T14:00:26.167Z,35.22
2019-02-27T14:02:55.337Z,36.55
2019-02-27T14:05:24.666Z,35.69
2019-02-27T14:07:57.170Z,36.12
2019-02-27T14:10:25.905Z,35.92
2019-02-27T14:12:55.223Z,35.45
2019-02-27T14:15:27.307Z,34.50
2019-02-27T14:17:55.412Z,34.64
2019-02-27T14:20:27.075Z,35.36
2019-02-27T14:22:55.531Z,37.87
2019-02-27T14:25:28.514Z,36.89
2019-02-27T14:27:56.622Z,36.92
2019-02-27T14:30:28.139Z,38.65
2019-02-27T14:32:57.495Z,38.45
2019-02-27T14:35:26.575Z,37.12
2019-02-27T14:37:55.743Z,36.36
2019-02-27T14:40:25.108Z,36.71
2019-02-27T14:42:55.069Z,36.67
2019-02-27T14:45:24.312Z,36.47
2019-02-27T14:47:53.651Z,36.49
2019-02-27T14:50:23.470Z,38.13
2019-02-27T14:52:52.526Z,38.16
2019-02-27T14:55:22.291Z,38.43
2019-02-27T14:57:52.001Z,38.98
2019-02-27T15:00:24.483Z,40.28
2019-02-27T15:02:55.613Z,39.58
2019-02-27T15:05:25.019Z,39.80
2019-02-27T15:07:54.890Z,40.14
2019-02-27T15:10:24.071Z,40.26
2019-02-27T15:12:55.144Z,41.67
2019-02-27T15:15:26.137Z,41.36
2019-02-27T15:17:55.650Z,41.98
2019-02-27T15:20:25.882Z,42.15
2019-02-27T15:22:55.027Z,42.16
2019-02-27T15:25:24.728Z,41.59
2019-02-27T15:27:58.269Z,42.47
2019-02-27T15:30:25.931Z,42.49
2019-02-27T15:32:55.587Z,43.61
2019-02-27T15:35:24.728Z,43.12
2019-02-27T15:37:54.255Z,42.83
2019-02-27T15:40:28.371Z,43.53
2019-02-27T15:42:55.156Z,44.25
2019-02-27T15:45:24.907Z,44.51
2019-02-27T15:47:54.158Z,45.62
2019-02-27T15:50:24.387Z,46.54
2019-02-27T15:52:53.670Z,48.05
2019-02-27T15:55:24.200Z,47.80
2019-02-27T15:57:54.629Z,48.24
2019-02-27T16:00:24.267Z,48.17
2019-02-27T16:02:54.640Z,48.54
2019-02-27T16:05:29.866Z,48.64
2019-02-27T16:07:56.209Z,48.35
2019-02-27T16:10:27.192Z,48.97
2019-02-27T16:12:59.676Z,49.80
2019-02-27T16:15:28.675Z,50.03
2019-02-27T16:17:58.619Z,50.26
2019-02-27T16:20:28.733Z,50.74
2019-02-27T16:22:58.597Z,50.72
2019-02-27T16:25:28.255Z,51.53
2019-02-27T16:27:58.196Z,51.65
2019-02-27T16:30:32.440Z,51.99
2019-02-27T16:33:01.624Z,52.47
2019-02-27T16:35:31.608Z,53.30
2019-02-27T16:38:01.685Z,53.29
2019-02-27T16:40:30.922Z,53.42
2019-02-27T16:43:00.506Z,52.98
2019-02-27T16:45:33.846Z,53.33
2019-02-27T16:48:02.117Z,53.22
2019-02-27T16:50:31.355Z,53.54
2019-02-27T16:53:01.013Z,53.71
2019-02-27T16:55:35.601Z,53.15
2019-02-27T16:58:02.234Z,53.70
2019-02-27T17:00:32.648Z,54.01
2019-02-27T17:03:02.381Z,54.98
2019-02-27T17:05:32.923Z,56.02
2019-02-27T17:08:03.037Z,57.11
2019-02-27T17:10:32.905Z,57.40
2019-02-27T17:13:03.179Z,55.75
2019-02-27T17:15:35.848Z,58.04
2019-02-27T17:18:09.542Z,58.70
2019-02-27T17:20:39.345Z,58.39
2019-02-27T17:23:10.932Z,58.43
2019-02-27T17:25:40.186Z,58.49
2019-02-27T17:28:09.419Z,58.40
2019-02-27T17:30:39.332Z,58.79
2019-02-27T17:33:08.758Z,58.45
2019-02-27T17:35:38.658Z,58.56
2019-02-27T17:38:10.759Z,58.33
2019-02-27T17:40:39.943Z,59.53
2019-02-27T17:43:09.964Z,59.81
2019-02-27T17:45:39.956Z,60.65
2019-02-27T17:48:12.255Z,61.31
2019-02-27T17:50:40.504Z,61.89
2019-02-27T17:53:10.487Z,62.13
2019-02-27T17:55:41.694Z,62.77
2019-02-27T17:58:11.512Z,63.77
2019-02-27T18:00:42.355Z,63.47
2019-02-27T18:03:11.383Z,63.47
2019-02-27T18:05:40.383Z,64.29
2019-02-27T18:08:09.469Z,64.89
2019-02-27T18:10:38.890Z,64.89
2019-02-27T18:13:08.388Z,64.79
2019-02-27T18:15:37.423Z,64.71
2019-02-27T18:18:09.113Z,65.40
2019-02-27T18:20:37.597Z,65.43
2019-02-27T18:23:06.885Z,65.48
2019-02-27T18:25:40.875Z,65.36
2019-02-27T18:28:06.805Z,65.63
2019-02-27T18:30:35.913Z,66.06
2019-02-27T18:33:05.345Z,66.36
2019-02-27T18:35:34.746Z,66.17
2019-02-27T18:38:04.196Z,66.64
2019-02-27T18:40:33.275Z,66.85
2019-02-27T18:43:02.647Z,67.29
2019-02-27T18:45:32.174Z,67.38
2019-02-27T18:48:01.613Z,67.67
2019-02-27T18:50:30.689Z,67.92
2019-02-27T18:52:59.715Z,67.87
2019-02-27T18:55:30.720Z,68.32
2019-02-27T18:57:59.584Z,68.54
2019-02-27T19:00:29.083Z,68.36
2019-02-27T19:02:58.869Z,68.65
2019-02-27T19:05:28.263Z,68.92
2019-02-27T19:07:57.606Z,68.93
2019-02-27T19:10:27.229Z,69.10
2019-02-27T19:12:56.253Z,69.61
2019-02-27T19:15:25.983Z,69.47
2019-02-27T19:17:55.407Z,69.86
2019-02-27T19:20:26.766Z,69.87
2019-02-27T19:22:55.783Z,70.10
2019-02-27T19:25:24.917Z,70.49
2019-02-27T19:27:53.963Z,70.94
2019-02-27T19:30:27.619Z,71.13
2019-02-27T19:33:01.511Z,71.17
2019-02-27T19:35:28.001Z,71.25
2019-02-27T19:37:57.268Z,70.98
2019-02-27T19:40:29.871Z,71.56
2019-02-27T19:42:59.365Z,71.67
2019-02-27T19:45:29.175Z,71.56
2019-02-27T19:47:58.222Z,72.24
2019-02-27T19:50:27.836Z,72.02
2019-02-27T19:52:56.905Z,72.46
2019-02-27T19:55:27.552Z,72.45
2019-02-27T19:57:56.633Z,72.54
2019-02-27T20:00:27.305Z,72.62
2019-02-27T20:03:01.063Z,72.59
2019-02-27T20:05:27.301Z,72.97
2019-02-27T20:07:57.096Z,73.11
2019-02-27T20:10:28.832Z,72.52
2019-02-27T20:12:56.932Z,72.16
2019-02-27T20:15:26.685Z,71.37
2019-02-27T20:17:56.259Z,71.45
2019-02-27T20:20:25.803Z,72.28
2019-02-27T20:22:55.619Z,72.85
2019-02-27T20:25:25.271Z,73.28
2019-02-27T20:27:54.341Z,73.25
2019-02-27T20:30:24.103Z,73.13
2019-02-27T20:32:53.179Z,73.33
2019-02-27T20:35:22.220Z,73.63
2019-02-27T20:37:51.519Z,73.61
2019-02-27T20:40:20.788Z,73.16
2019-02-27T20:42:54.448Z,72.86
2019-02-27T20:45:20.963Z,72.44
2019-02-27T20:47:50.726Z,72.61
2019-02-27T20:50:34.816Z,72.97
2019-02-27T20:53:03.335Z,72.53
2019-02-27T20:55:32.409Z,72.19
2019-02-27T20:58:01.532Z,72.19
2019-02-27T21:00:36.123Z,72.85
2019-02-27T21:03:02.650Z,72.35
2019-02-27T21:05:32.732Z,71.86
2019-02-27T21:08:02.557Z,72.40
2019-02-27T21:10:31.779Z,71.70
2019-02-27T21:13:00.854Z,71.64
2019-02-27T21:15:32.339Z,71.14
2019-02-27T21:18:01.050Z,71.64
2019-02-27T21:20:30.105Z,70.93
2019-02-27T21:23:00.257Z,71.36
2019-02-27T21:25:30.597Z,70.46
2019-02-27T21:27:59.912Z,70.38
2019-02-27T21:30:29.243Z,70.24
2019-02-27T21:32:58.304Z,71.56
2019-02-27T21:35:29.646Z,70.75
2019-02-27T21:37:58.465Z,70.36
2019-02-27T21:40:27.620Z,70.12
2019-02-27T21:42:56.978Z,70.95
2019-02-27T21:45:26.345Z,71.15
2019-02-27T21:47:55.617Z,71.37
2019-02-27T21:50:24.979Z,71.81
2019-02-27T21:52:55.675Z,72.49
2019-02-27T21:55:24.958Z,72.57
2019-02-27T21:57:54.089Z,71.80
2019-02-27T22:00:24.010Z,71.98
2019-02-27T22:02:54.032Z,72.26
2019-02-27T22:05:23.494Z,72.99
2019-02-27T22:07:52.540Z,72.25
2019-02-27T22:10:22.156Z,72.48
2019-02-27T22:12:51.187Z,73.87
2019-02-27T22:15:25.155Z,74.13
2019-02-27T22:17:54.647Z,73.66
2019-02-27T22:20:25.775Z,73.19
2019-02-27T22:22:54.471Z,74.38
2019-02-27T22:25:23.518Z,74.72
2019-02-27T22:27:52.588Z,75.21
2019-02-27T22:30:21.651Z,75.73
2019-02-27T22:32:50.890Z,76.78
2019-02-27T22:35:20.297Z,78.06
2019-02-27T22:37:52.466Z,78.39
2019-02-27T22:40:20.212Z,78.09
2019-02-27T22:42:49.390Z,78.47
2019-02-27T22:45:18.770Z,78.33
2019-02-27T22:47:47.896Z,78.74
2019-02-27T22:50:17.357Z,79.15
2019-02-27T22:52:46.388Z,79.16
2019-02-27T22:55:15.847Z,79.20
2019-02-27T22:57:45.960Z,79.38
2019-02-27T23:00:56.788Z,80.00
2019-02-27T23:03:26.764Z,80.39
2019-02-27T23:05:55.772Z,80.93
2019-02-27T23:08:24.802Z,81.42
2019-02-27T23:10:53.864Z,81.18
2019-02-27T23:13:23.232Z,79.99
2019-02-27T23:15:57.892Z,78.73
2019-02-27T23:18:23.722Z,78.61
2019-02-27T23:20:55.505Z,78.90
2019-02-27T23:23:23.841Z,79.72
2019-02-27T23:25:52.906Z,79.99
2019-02-27T23:28:21.976Z,79.60
2019-02-27T23:30:50.998Z,79.67
2019-02-27T23:33:19.980Z,80.70
2019-02-27T23:35:50.182Z,81.03
2019-02-27T23:38:19.881Z,81.80
2019-02-27T23:40:50.023Z,82.11
2019-02-27T23:43:19.789Z,81.86
2019-02-27T23:45:48.888Z,81.53
2019-02-27T23:48:17.925Z,81.34
2019-02-27T23:50:46.950Z,81.52
2019-02-27T23:53:15.997Z,81.43
2019-02-27T23:55:45.671Z,81.52
2019-02-27T23:58:14.997Z,81.09
